Terminal Aerodrome Forecast
Issued by NWS Cleveland, OH

Home | Current Version | Previous Version | Text Only | Print | Product List | Glossary On
Versions: 1 2 3 4 5 6 7 8 9 10 11 12 13 14 15 16 17 18 19 20
119
FTUS41 KCLE 300527
TAFCAK
TAF
KCAK 300527Z 3006/3106 03004KT 5SM BR SCT035 BKN120
      TEMPO 3006/3009 4SM BR
     FM300900 14003KT 3SM BR SCT250
      TEMPO 3009/3013 1SM BR
     FM301500 20004KT P6SM SCT035 BKN080
     FM301800 22006KT P6SM VCTS BKN035CB
     FM302200 16006KT P6SM -TSRA BKN035CB
     FM310100 10005KT 4SM BR SCT250=

USA.gov is the U.S. government's official web portal to all federal, state and local government web resources and services.